sensor_id;sensor_type;location;lat;lon;timestamp;pressure;altitude;pressure_sealevel;temperature;humidity
68891;BME280;55932;48.702;8.884;2023-04-25T00:02:30;95520;;;7;69
68891;BME280;55932;48.702;8.884;2023-04-25T00:05:01;95520;;;7;69
68891;BME280;55932;48.702;8.884;2023-04-25T00:07:33;95520;;;6.9;69
68891;BME280;55932;48.702;8.884;2023-04-25T00:10:02;95510;;;6.9;69
68891;BME280;55932;48.702;8.884;2023-04-25T00:12:32;95520;;;6.8;69
68891;BME280;55932;48.702;8.884;2023-04-25T00:15:03;95520;;;6.8;69
68891;BME280;55932;48.702;8.884;2023-04-25T00:22:35;95520;;;6.8;69
68891;BME280;55932;48.702;8.884;2023-04-25T00:30:17;95510;;;6.9;69
68891;BME280;55932;48.702;8.884;2023-04-25T00:37:47;95510;;;6.6;69.5
68891;BME280;55932;48.702;8.884;2023-04-25T00:40:29;95520;;;6.6;69.5
68891;BME280;55932;48.702;8.884;2023-04-25T00:43:00;95520;;;6.7;69
68891;BME280;55932;48.702;8.884;2023-04-25T00:45:31;95520;;;6.9;69
68891;BME280;55932;48.702;8.884;2023-04-25T00:47:59;95510;;;7;69
68891;BME280;55932;48.702;8.884;2023-04-25T00:50:29;95510;;;7;69
68891;BME280;55932;48.702;8.884;2023-04-25T00:52:50;95500;;;7;68.5
68891;BME280;55932;48.702;8.884;2023-04-25T00:55:20;95510;;;7;68.5
68891;BME280;55932;48.702;8.884;2023-04-25T00:57:50;95500;;;7.1;68.5
68891;BME280;55932;48.702;8.884;2023-04-25T01:00:20;95500;;;7;69
68891;BME280;55932;48.702;8.884;2023-04-25T01:02:50;95500;;;6.9;69
68891;BME280;55932;48.702;8.884;2023-04-25T01:07:50;95480;;;6.9;68.5
68891;BME280;55932;48.702;8.884;2023-04-25T01:10:20;95490;;;6.8;69
68891;BME280;55932;48.702;8.884;2023-04-25T01:12:50;95490;;;6.6;69
68891;BME280;55932;48.702;8.884;2023-04-25T01:15:20;95480;;;6.4;69.5
68891;BME280;55932;48.702;8.884;2023-04-25T01:18:00;95490;;;6.4;69.5
68891;BME280;55932;48.702;8.884;2023-04-25T01:20:30;95490;;;6.3;69.5
68891;BME280;55932;48.702;8.884;2023-04-25T01:22:51;95500;;;6.4;69.5
68891;BME280;55932;48.702;8.884;2023-04-25T01:25:21;95490;;;6.4;69.5
68891;BME280;55932;48.702;8.884;2023-04-25T01:30:10;95490;;;6.3;69
68891;BME280;55932;48.702;8.884;2023-04-25T01:32:41;95490;;;6.3;69
68891;BME280;55932;48.702;8.884;2023-04-25T01:35:11;95490;;;6.3;69
68891;BME280;55932;48.702;8.884;2023-04-25T01:45:13;95480;;;6.1;69.5
68891;BME280;55932;48.702;8.884;2023-04-25T01:47:44;95480;;;6.1;69.5
68891;BME280;55932;48.702;8.884;2023-04-25T01:50:15;95480;;;6.2;69.5
68891;BME280;55932;48.702;8.884;2023-04-25T01:52:45;95480;;;6.2;69.5
68891;BME280;55932;48.702;8.884;2023-04-25T01:55:38;95480;;;6.1;69.5
68891;BME280;55932;48.702;8.884;2023-04-25T01:58:08;95480;;;6;69.5
68891;BME280;55932;48.702;8.884;2023-04-25T02:00:40;95470;;;5.9;69.5
68891;BME280;55932;48.702;8.884;2023-04-25T02:03:10;95480;;;5.7;70
68891;BME280;55932;48.702;8.884;2023-04-25T02:05:41;95480;;;5.5;70
68891;BME280;55932;48.702;8.884;2023-04-25T02:07:59;95470;;;5.4;70.5
68891;BME280;55932;48.702;8.884;2023-04-25T02:10:30;95470;;;5.3;70.5
68891;BME280;55932;48.702;8.884;2023-04-25T02:13:09;95480;;;5.2;70.5
68891;BME280;55932;48.702;8.884;2023-04-25T02:18:00;95470;;;5.1;70.5
68891;BME280;55932;48.702;8.884;2023-04-25T02:20:30;95470;;;5.1;70.5
68891;BME280;55932;48.702;8.884;2023-04-25T02:23:00;95470;;;5.2;70
68891;BME280;55932;48.702;8.884;2023-04-25T02:25:30;95470;;;5.5;70
68891;BME280;55932;48.702;8.884;2023-04-25T02:28:00;95470;;;5.6;69.5
68891;BME280;55932;48.702;8.884;2023-04-25T02:30:30;95470;;;5.6;69.5
68891;BME280;55932;48.702;8.884;2023-04-25T02:33:00;95470;;;5.6;69.5
68891;BME280;55932;48.702;8.884;2023-04-25T02:38:10;95460;;;5.5;69.5
68891;BME280;55932;48.702;8.884;2023-04-25T02:40:31;95470;;;5.5;70
68891;BME280;55932;48.702;8.884;2023-04-25T02:43:01;95470;;;5.5;70
68891;BME280;55932;48.702;8.884;2023-04-25T02:47:50;95460;;;5.8;69.5
68891;BME280;55932;48.702;8.884;2023-04-25T02:50:20;95460;;;5.8;69.5
68891;BME280;55932;48.702;8.884;2023-04-25T02:52:51;95450;;;5.8;69
68891;BME280;55932;48.702;8.884;2023-04-25T03:02:53;95450;;;6;69
68891;BME280;55932;48.702;8.884;2023-04-25T03:07:54;95450;;;6.2;69
68891;BME280;55932;48.702;8.884;2023-04-25T03:13:18;95440;;;6.3;68.5
68891;BME280;55932;48.702;8.884;2023-04-25T03:18:19;95430;;;6.2;69
68891;BME280;55932;48.702;8.884;2023-04-25T03:20:50;95440;;;6;69
68891;BME280;55932;48.702;8.884;2023-04-25T03:23:20;95430;;;5.8;69
68891;BME280;55932;48.702;8.884;2023-04-25T03:28:10;95430;;;5.3;70
68891;BME280;55932;48.702;8.884;2023-04-25T03:30:49;95440;;;5;70.5
68891;BME280;55932;48.702;8.884;2023-04-25T03:35:40;95430;;;5;70
68891;BME280;55932;48.702;8.884;2023-04-25T03:43:22;95430;;;5.3;69.5
68891;BME280;55932;48.702;8.884;2023-04-25T03:48:23;95440;;;5.5;69.5
68891;BME280;55932;48.702;8.884;2023-04-25T03:53:13;95440;;;4.9;70
68891;BME280;55932;48.702;8.884;2023-04-25T03:55:52;95440;;;4.6;70.5
68891;BME280;55932;48.702;8.884;2023-04-25T04:03:34;95440;;;4.4;71
68891;BME280;55932;48.702;8.884;2023-04-25T04:05:57;95430;;;4.4;70.5
68891;BME280;55932;48.702;8.884;2023-04-25T04:10:45;95440;;;4.2;71
68891;BME280;55932;48.702;8.884;2023-04-25T04:13:15;95440;;;4.2;71
68891;BME280;55932;48.702;8.884;2023-04-25T04:15:45;95440;;;4.2;71
68891;BME280;55932;48.702;8.884;2023-04-25T04:18:15;95450;;;4.2;71
68891;BME280;55932;48.702;8.884;2023-04-25T04:25:34;95440;;;4.3;70.5
68891;BME280;55932;48.702;8.884;2023-04-25T04:30:35;95440;;;4.2;71
68891;BME280;55932;48.702;8.884;2023-04-25T04:33:06;95450;;;4.3;71
68891;BME280;55932;48.702;8.884;2023-04-25T04:35:36;95460;;;4.5;70.5
68891;BME280;55932;48.702;8.884;2023-04-25T04:38:07;95460;;;4.6;70.5
68891;BME280;55932;48.702;8.884;2023-04-25T04:45:38;95460;;;5.2;69.5
68891;BME280;55932;48.702;8.884;2023-04-25T04:48:09;95450;;;5.5;69
68891;BME280;55932;48.702;8.884;2023-04-25T04:51:01;95450;;;5.8;69
68891;BME280;55932;48.702;8.884;2023-04-25T04:53:21;95450;;;6.1;68.5
68891;BME280;55932;48.702;8.884;2023-04-25T04:55:51;95460;;;6.2;68.5
68891;BME280;55932;48.702;8.884;2023-04-25T04:58:21;95460;;;6.4;68
68891;BME280;55932;48.702;8.884;2023-04-25T05:01:00;95460;;;6.4;68.5
68891;BME280;55932;48.702;8.884;2023-04-25T05:03:21;95460;;;6.5;68.5
68891;BME280;55932;48.702;8.884;2023-04-25T05:05:51;95460;;;6.5;68.5
68891;BME280;55932;48.702;8.884;2023-04-25T05:08:21;95460;;;6.6;68.5
68891;BME280;55932;48.702;8.884;2023-04-25T05:13:11;95460;;;6.6;68.5
68891;BME280;55932;48.702;8.884;2023-04-25T05:15:41;95450;;;6.7;68.5
68891;BME280;55932;48.702;8.884;2023-04-25T05:18:16;95460;;;6.7;68.5
68891;BME280;55932;48.702;8.884;2023-04-25T05:20:42;95460;;;6.7;68.5
68891;BME280;55932;48.702;8.884;2023-04-25T05:23:13;95470;;;6.8;69
68891;BME280;55932;48.702;8.884;2023-04-25T05:25:43;95460;;;6.8;68.5
68891;BME280;55932;48.702;8.884;2023-04-25T05:28:14;95450;;;6.9;68.5
68891;BME280;55932;48.702;8.884;2023-04-25T05:30:56;95460;;;6.8;68.5
68891;BME280;55932;48.702;8.884;2023-04-25T05:33:26;95460;;;6.9;68.5
68891;BME280;55932;48.702;8.884;2023-04-25T05:35:56;95470;;;6.8;68.5
68891;BME280;55932;48.702;8.884;2023-04-25T05:38:35;95470;;;6.6;69
68891;BME280;55932;48.702;8.884;2023-04-25T05:40:45;95460;;;6.7;69
68891;BME280;55932;48.702;8.884;2023-04-25T05:43:15;95470;;;6.7;69
68891;BME280;55932;48.702;8.884;2023-04-25T05:45:46;95470;;;6.6;69
68891;BME280;55932;48.702;8.884;2023-04-25T05:48:17;95470;;;6.6;69
68891;BME280;55932;48.702;8.884;2023-04-25T05:50:47;95470;;;6.6;69
68891;BME280;55932;48.702;8.884;2023-04-25T05:53:18;95470;;;6.7;69
68891;BME280;55932;48.702;8.884;2023-04-25T05:55:48;95470;;;6.9;69
68891;BME280;55932;48.702;8.884;2023-04-25T05:58:19;95470;;;7.1;68.5
68891;BME280;55932;48.702;8.884;2023-04-25T06:03:30;95470;;;7.3;68.5
68891;BME280;55932;48.702;8.884;2023-04-25T06:06:11;95470;;;7.3;68.5
68891;BME280;55932;48.702;8.884;2023-04-25T06:08:40;95470;;;7.4;68.5
68891;BME280;55932;48.702;8.884;2023-04-25T06:16:02;95470;;;7.1;68.5
68891;BME280;55932;48.702;8.884;2023-04-25T06:18:31;95470;;;6.9;69
68891;BME280;55932;48.702;8.884;2023-04-25T06:21:02;95470;;;6.8;69
68891;BME280;55932;48.702;8.884;2023-04-25T06:23:31;95480;;;6.7;69
68891;BME280;55932;48.702;8.884;2023-04-25T06:26:02;95480;;;6.9;68.5
68891;BME280;55932;48.702;8.884;2023-04-25T06:28:31;95480;;;6.9;68.5
68891;BME280;55932;48.702;8.884;2023-04-25T06:31:11;95480;;;7;68.5
68891;BME280;55932;48.702;8.884;2023-04-25T06:36:02;95480;;;6.9;69
68891;BME280;55932;48.702;8.884;2023-04-25T06:41:14;95480;;;7.1;69
68891;BME280;55932;48.702;8.884;2023-04-25T06:43:45;95470;;;7.1;69
68891;BME280;55932;48.702;8.884;2023-04-25T06:48:35;95470;;;7.1;69
68891;BME280;55932;48.702;8.884;2023-04-25T06:51:05;95470;;;7.1;69
68891;BME280;55932;48.702;8.884;2023-04-25T06:53:35;95480;;;7.2;68.5
68891;BME280;55932;48.702;8.884;2023-04-25T06:56:14;95470;;;7.3;68.5
68891;BME280;55932;48.702;8.884;2023-04-25T07:01:05;95480;;;7.5;68.5
68891;BME280;55932;48.702;8.884;2023-04-25T07:03:35;95480;;;7.4;68.5
68891;BME280;55932;48.702;8.884;2023-04-25T07:06:06;95480;;;7.3;68.5
68891;BME280;55932;48.702;8.884;2023-04-25T07:08:35;95480;;;7.4;68.5
68891;BME280;55932;48.702;8.884;2023-04-25T07:11:15;95480;;;7.5;68
68891;BME280;55932;48.702;8.884;2023-04-25T07:13:45;95480;;;7.4;68
68891;BME280;55932;48.702;8.884;2023-04-25T07:16:06;95490;;;7.1;68.5
68891;BME280;55932;48.702;8.884;2023-04-25T07:20:55;95480;;;6.9;69
68891;BME280;55932;48.702;8.884;2023-04-25T07:23:26;95480;;;7;68.5
68891;BME280;55932;48.702;8.884;2023-04-25T07:25:56;95490;;;7;69
68891;BME280;55932;48.702;8.884;2023-04-25T07:28:26;95490;;;7.1;69
68891;BME280;55932;48.702;8.884;2023-04-25T07:30:57;95490;;;7;69
68891;BME280;55932;48.702;8.884;2023-04-25T07:38:29;95500;;;7;68.5
68891;BME280;55932;48.702;8.884;2023-04-25T07:40:59;95500;;;6.9;68.5
68891;BME280;55932;48.702;8.884;2023-04-25T07:43:30;95500;;;6.9;68.5
68891;BME280;55932;48.702;8.884;2023-04-25T07:46:05;95500;;;6.9;68.5
68891;BME280;55932;48.702;8.884;2023-04-25T07:48:31;95500;;;6.7;68.5
68891;BME280;55932;48.702;8.884;2023-04-25T07:51:02;95520;;;6.7;68.5
68891;BME280;55932;48.702;8.884;2023-04-25T07:53:32;95520;;;6.7;68.5
68891;BME280;55932;48.702;8.884;2023-04-25T07:58:44;95530;;;6.6;68.5
68891;BME280;55932;48.702;8.884;2023-04-25T08:01:14;95530;;;6.5;68.5
68891;BME280;55932;48.702;8.884;2023-04-25T08:03:54;95530;;;6.6;68.5
68891;BME280;55932;48.702;8.884;2023-04-25T08:08:34;95550;;;6.7;68.5
68891;BME280;55932;48.702;8.884;2023-04-25T08:11:05;95540;;;6.6;68.5
68891;BME280;55932;48.702;8.884;2023-04-25T08:13:35;95550;;;6.5;68.5
68891;BME280;55932;48.702;8.884;2023-04-25T08:16:17;95550;;;6.5;68.5
68891;BME280;55932;48.702;8.884;2023-04-25T08:18:47;95550;;;6.5;68.5
68891;BME280;55932;48.702;8.884;2023-04-25T08:21:17;95560;;;6.6;68.5
68891;BME280;55932;48.702;8.884;2023-04-25T08:23:47;95560;;;6.6;68
68891;BME280;55932;48.702;8.884;2023-04-25T08:26:17;95560;;;6.6;68
68891;BME280;55932;48.702;8.884;2023-04-25T08:28:36;95560;;;6.5;68
68891;BME280;55932;48.702;8.884;2023-04-25T08:31:06;95570;;;6.4;68.5
68891;BME280;55932;48.702;8.884;2023-04-25T08:33:37;95580;;;6.4;68
68891;BME280;55932;48.702;8.884;2023-04-25T08:36:07;95570;;;6.4;68
68891;BME280;55932;48.702;8.884;2023-04-25T08:41:09;95580;;;6.4;68
68891;BME280;55932;48.702;8.884;2023-04-25T08:43:40;95590;;;6.6;68
68891;BME280;55932;48.702;8.884;2023-04-25T08:46:09;95590;;;6.6;68
68891;BME280;55932;48.702;8.884;2023-04-25T08:53:41;95600;;;6.5;68
68891;BME280;55932;48.702;8.884;2023-04-25T08:56:12;95600;;;6.5;68
68891;BME280;55932;48.702;8.884;2023-04-25T08:58:42;95610;;;6.4;68
68891;BME280;55932;48.702;8.884;2023-04-25T09:01:24;95610;;;6.3;68.5
68891;BME280;55932;48.702;8.884;2023-04-25T09:03:54;95620;;;6.3;68.5
68891;BME280;55932;48.702;8.884;2023-04-25T09:06:24;95620;;;6.3;68.5
68891;BME280;55932;48.702;8.884;2023-04-25T09:08:43;95620;;;6.3;68.5
68891;BME280;55932;48.702;8.884;2023-04-25T09:11:13;95630;;;6.2;68.5
68891;BME280;55932;48.702;8.884;2023-04-25T09:13:44;95630;;;6.1;68.5
68891;BME280;55932;48.702;8.884;2023-04-25T09:19:08;95640;;;6.1;68.5
68891;BME280;55932;48.702;8.884;2023-04-25T09:31:40;95660;;;5.9;68.5
68891;BME280;55932;48.702;8.884;2023-04-25T09:34:10;95670;;;5.8;68.5
68891;BME280;55932;48.702;8.884;2023-04-25T09:39:00;95680;;;5.9;68.5
68891;BME280;55932;48.702;8.884;2023-04-25T09:41:30;95670;;;5.9;68.5
68891;BME280;55932;48.702;8.884;2023-04-25T09:44:00;95680;;;5.8;68.5
68891;BME280;55932;48.702;8.884;2023-04-25T09:46:40;95680;;;5.8;68.5
68891;BME280;55932;48.702;8.884;2023-04-25T09:51:20;95690;;;6;68.5
68891;BME280;55932;48.702;8.884;2023-04-25T09:54:02;95690;;;6;68.5
68891;BME280;55932;48.702;8.884;2023-04-25T09:56:33;95690;;;6;68.5
68891;BME280;55932;48.702;8.884;2023-04-25T09:59:02;95690;;;6;68.5
68891;BME280;55932;48.702;8.884;2023-04-25T10:01:32;95690;;;6.1;68.5
68891;BME280;55932;48.702;8.884;2023-04-25T10:03:51;95690;;;6.2;68.5
68891;BME280;55932;48.702;8.884;2023-04-25T10:11:23;95690;;;6.7;68
68891;BME280;55932;48.702;8.884;2023-04-25T10:13:54;95700;;;6.9;68
68891;BME280;55932;48.702;8.884;2023-04-25T10:16:24;95690;;;6.8;68
68891;BME280;55932;48.702;8.884;2023-04-25T10:18:55;95700;;;6.7;68
68891;BME280;55932;48.702;8.884;2023-04-25T10:21:25;95700;;;6.6;68
68891;BME280;55932;48.702;8.884;2023-04-25T10:23:56;95700;;;6.7;68
68891;BME280;55932;48.702;8.884;2023-04-25T10:26:26;95710;;;6.9;68
68891;BME280;55932;48.702;8.884;2023-04-25T10:28:57;95710;;;6.9;68
68891;BME280;55932;48.702;8.884;2023-04-25T10:31:46;95700;;;7;68
68891;BME280;55932;48.702;8.884;2023-04-25T10:34:09;95710;;;7.3;67.5
68891;BME280;55932;48.702;8.884;2023-04-25T10:36:39;95710;;;7.5;67.5
68891;BME280;55932;48.702;8.884;2023-04-25T10:39:22;95710;;;7.5;67.5
68891;BME280;55932;48.702;8.884;2023-04-25T10:43:59;95710;;;7.5;67.5
68891;BME280;55932;48.702;8.884;2023-04-25T10:46:29;95710;;;7.6;67.5
68891;BME280;55932;48.702;8.884;2023-04-25T10:49:00;95720;;;7.8;67.5
68891;BME280;55932;48.702;8.884;2023-04-25T10:51:31;95720;;;7.7;67.5
68891;BME280;55932;48.702;8.884;2023-04-25T10:54:00;95730;;;7.7;68
68891;BME280;55932;48.702;8.884;2023-04-25T10:56:31;95730;;;7.6;68
68891;BME280;55932;48.702;8.884;2023-04-25T11:06:55;95740;;;7.7;68
68891;BME280;55932;48.702;8.884;2023-04-25T11:09:14;95740;;;8;68
68891;BME280;55932;48.702;8.884;2023-04-25T11:11:52;95740;;;8.3;68
68891;BME280;55932;48.702;8.884;2023-04-25T11:16:33;95740;;;8.5;68
68891;BME280;55932;48.702;8.884;2023-04-25T11:19:03;95740;;;8.2;68
68891;BME280;55932;48.702;8.884;2023-04-25T11:21:34;95750;;;7.8;68
68891;BME280;55932;48.702;8.884;2023-04-25T11:24:04;95760;;;7.3;68.5
68891;BME280;55932;48.702;8.884;2023-04-25T11:26:35;95760;;;7.1;68.5
68891;BME280;55932;48.702;8.884;2023-04-25T11:29:06;95760;;;6.9;69
68891;BME280;55932;48.702;8.884;2023-04-25T11:31:36;95770;;;6.6;69
68891;BME280;55932;48.702;8.884;2023-04-25T11:34:07;95770;;;6.7;69
68891;BME280;55932;48.702;8.884;2023-04-25T11:41:38;95770;;;6.5;69.5
68891;BME280;55932;48.702;8.884;2023-04-25T11:44:09;95770;;;6.6;69.5
68891;BME280;55932;48.702;8.884;2023-04-25T11:46:39;95770;;;6.8;69.5
68891;BME280;55932;48.702;8.884;2023-04-25T11:51:52;95780;;;7.4;68.5
68891;BME280;55932;48.702;8.884;2023-04-25T11:56:52;95780;;;7.7;68.5
68891;BME280;55932;48.702;8.884;2023-04-25T11:59:23;95790;;;7.4;68.5
68891;BME280;55932;48.702;8.884;2023-04-25T12:01:52;95790;;;7.4;68.5
68891;BME280;55932;48.702;8.884;2023-04-25T12:04:22;95780;;;7.5;68.5
68891;BME280;55932;48.702;8.884;2023-04-25T12:12:04;95800;;;8.1;68
68891;BME280;55932;48.702;8.884;2023-04-25T12:14:35;95800;;;8.2;68
68891;BME280;55932;48.702;8.884;2023-04-25T12:17:05;95800;;;8.3;67.5
68891;BME280;55932;48.702;8.884;2023-04-25T12:19:36;95800;;;8.3;67.5
68891;BME280;55932;48.702;8.884;2023-04-25T12:21:55;95800;;;8.3;68
68891;BME280;55932;48.702;8.884;2023-04-25T12:24:34;95800;;;8.1;68
68891;BME280;55932;48.702;8.884;2023-04-25T12:27:06;95800;;;8.1;68
68891;BME280;55932;48.702;8.884;2023-04-25T12:29:26;95800;;;8;68
68891;BME280;55932;48.702;8.884;2023-04-25T12:34:15;95800;;;8;68.5
68891;BME280;55932;48.702;8.884;2023-04-25T12:36:45;95810;;;8.2;68.5
68891;BME280;55932;48.702;8.884;2023-04-25T12:39:17;95810;;;8.5;68
68891;BME280;55932;48.702;8.884;2023-04-25T12:41:46;95800;;;9;68
68891;BME280;55932;48.702;8.884;2023-04-25T12:49:18;95800;;;11;66.5
68891;BME280;55932;48.702;8.884;2023-04-25T12:51:48;95800;;;10.9;67.5
68891;BME280;55932;48.702;8.884;2023-04-25T12:54:19;95790;;;11.2;67.5
68891;BME280;55932;48.702;8.884;2023-04-25T12:56:50;95800;;;11.9;65.5
68891;BME280;55932;48.702;8.884;2023-04-25T12:59:31;95800;;;12.2;65
68891;BME280;55932;48.702;8.884;2023-04-25T13:02:01;95800;;;11.6;66
68891;BME280;55932;48.702;8.884;2023-04-25T13:07:01;95810;;;10.8;67
68891;BME280;55932;48.702;8.884;2023-04-25T13:12:13;95810;;;11.5;66
68891;BME280;55932;48.702;8.884;2023-04-25T13:14:52;95810;;;11.6;66
68891;BME280;55932;48.702;8.884;2023-04-25T13:17:15;95810;;;11.6;66.5
68891;BME280;55932;48.702;8.884;2023-04-25T13:19:33;95810;;;11.3;67
68891;BME280;55932;48.702;8.884;2023-04-25T13:24:43;95810;;;11.8;66.5
68891;BME280;55932;48.702;8.884;2023-04-25T13:27:04;95800;;;12.1;66.5
68891;BME280;55932;48.702;8.884;2023-04-25T13:29:34;95800;;;12;66.5
68891;BME280;55932;48.702;8.884;2023-04-25T13:34:23;95810;;;11.7;67
68891;BME280;55932;48.702;8.884;2023-04-25T13:36:54;95810;;;12.1;66
68891;BME280;55932;48.702;8.884;2023-04-25T13:39:24;95810;;;12;66
68891;BME280;55932;48.702;8.884;2023-04-25T13:46:56;95820;;;11.7;66.5
68891;BME280;55932;48.702;8.884;2023-04-25T13:49:26;95820;;;11.6;66.5
68891;BME280;55932;48.702;8.884;2023-04-25T13:51:57;95820;;;12.3;66.5
68891;BME280;55932;48.702;8.884;2023-04-25T13:54:28;95820;;;12.9;66
68891;BME280;55932;48.702;8.884;2023-04-25T13:56:58;95820;;;12.9;66
68891;BME280;55932;48.702;8.884;2023-04-25T14:02:11;95820;;;14;65.5
68891;BME280;55932;48.702;8.884;2023-04-25T14:04:41;95810;;;13.6;65
68891;BME280;55932;48.702;8.884;2023-04-25T14:09:50;95820;;;13.4;65.5
68891;BME280;55932;48.702;8.884;2023-04-25T14:12:20;95820;;;12.9;65.5
68891;BME280;55932;48.702;8.884;2023-04-25T14:14:41;95820;;;12.2;66.5
68891;BME280;55932;48.702;8.884;2023-04-25T14:17:11;95830;;;11.8;67.5
68891;BME280;55932;48.702;8.884;2023-04-25T14:19:41;95830;;;12.1;66.5
68891;BME280;55932;48.702;8.884;2023-04-25T14:27:00;95830;;;12.1;66.5
68891;BME280;55932;48.702;8.884;2023-04-25T14:34:32;95840;;;12.2;66.5
68891;BME280;55932;48.702;8.884;2023-04-25T14:37:03;95830;;;11.9;66.5
68891;BME280;55932;48.702;8.884;2023-04-25T14:45:16;95830;;;11.3;68
68891;BME280;55932;48.702;8.884;2023-04-25T14:47:27;95820;;;11.6;68
68891;BME280;55932;48.702;8.884;2023-04-25T14:52:17;95820;;;12.4;68
68891;BME280;55932;48.702;8.884;2023-04-25T14:54:48;95820;;;13.5;68
68891;BME280;55932;48.702;8.884;2023-04-25T14:57:18;95820;;;14.6;68
68891;BME280;55932;48.702;8.884;2023-04-25T14:59:48;95810;;;15;67
68891;BME280;55932;48.702;8.884;2023-04-25T15:07:08;95830;;;13.7;65.5
68891;BME280;55932;48.702;8.884;2023-04-25T15:09:39;95830;;;12.3;67.5
68891;BME280;55932;48.702;8.884;2023-04-25T15:12:12;95830;;;11.8;67.5
68891;BME280;55932;48.702;8.884;2023-04-25T15:17:10;95830;;;12.7;67
68891;BME280;55932;48.702;8.884;2023-04-25T15:19:40;95830;;;13.2;66.5
68891;BME280;55932;48.702;8.884;2023-04-25T15:22:11;95830;;;12.5;67.5
68891;BME280;55932;48.702;8.884;2023-04-25T15:29:43;95830;;;11.5;68
68891;BME280;55932;48.702;8.884;2023-04-25T15:34:43;95840;;;11;68
68891;BME280;55932;48.702;8.884;2023-04-25T15:37:14;95840;;;11;68
68891;BME280;55932;48.702;8.884;2023-04-25T15:39:45;95850;;;10.9;68
68891;BME280;55932;48.702;8.884;2023-04-25T15:42:15;95860;;;10.9;68
68891;BME280;55932;48.702;8.884;2023-04-25T15:44:45;95850;;;10.9;68.5
68891;BME280;55932;48.702;8.884;2023-04-25T15:47:16;95860;;;10.7;68.5
68891;BME280;55932;48.702;8.884;2023-04-25T15:54:48;95860;;;10.2;69
68891;BME280;55932;48.702;8.884;2023-04-25T16:07:40;95860;;;9.7;69
68891;BME280;55932;48.702;8.884;2023-04-25T16:10:01;95870;;;9.9;69
68891;BME280;55932;48.702;8.884;2023-04-25T16:12:31;95870;;;9.9;69
68891;BME280;55932;48.702;8.884;2023-04-25T16:15:02;95860;;;10;69
68891;BME280;55932;48.702;8.884;2023-04-25T16:20:13;95870;;;10.2;68.5
68891;BME280;55932;48.702;8.884;2023-04-25T16:25:14;95870;;;10.6;68.5
68891;BME280;55932;48.702;8.884;2023-04-25T16:27:44;95860;;;10.5;68.5
68891;BME280;55932;48.702;8.884;2023-04-25T16:30:24;95860;;;10.5;68.5
68891;BME280;55932;48.702;8.884;2023-04-25T16:32:54;95860;;;10.5;68.5
68891;BME280;55932;48.702;8.884;2023-04-25T16:35:05;95870;;;10.3;68.5
68891;BME280;55932;48.702;8.884;2023-04-25T16:37:35;95870;;;10.2;68.5
68891;BME280;55932;48.702;8.884;2023-04-25T16:40:05;95870;;;10.3;68.5
68891;BME280;55932;48.702;8.884;2023-04-25T16:42:35;95870;;;10.5;68
68891;BME280;55932;48.702;8.884;2023-04-25T16:44:54;95870;;;10.5;68.5
68891;BME280;55932;48.702;8.884;2023-04-25T16:52:26;95870;;;10.1;68.5
68891;BME280;55932;48.702;8.884;2023-04-25T16:54:56;95870;;;9.9;68.5
68891;BME280;55932;48.702;8.884;2023-04-25T16:57:27;95880;;;9.8;69
68891;BME280;55932;48.702;8.884;2023-04-25T16:59:58;95870;;;9.7;69
68891;BME280;55932;48.702;8.884;2023-04-25T17:02:28;95880;;;9.6;69
68891;BME280;55932;48.702;8.884;2023-04-25T17:04:59;95880;;;9.5;69
68891;BME280;55932;48.702;8.884;2023-04-25T17:07:29;95880;;;9.4;69
68891;BME280;55932;48.702;8.884;2023-04-25T17:12:42;95890;;;9.1;69.5
68891;BME280;55932;48.702;8.884;2023-04-25T17:15:12;95890;;;8.9;70
68891;BME280;55932;48.702;8.884;2023-04-25T17:25:12;95910;;;8.6;70
68891;BME280;55932;48.702;8.884;2023-04-25T17:30:13;95910;;;8.5;70
68891;BME280;55932;48.702;8.884;2023-04-25T17:32:43;95910;;;8.5;70
68891;BME280;55932;48.702;8.884;2023-04-25T17:40:27;95920;;;8.4;69.5
68891;BME280;55932;48.702;8.884;2023-04-25T17:42:57;95920;;;8.4;70
68891;BME280;55932;48.702;8.884;2023-04-25T17:45:29;95930;;;8.3;70
68891;BME280;55932;48.702;8.884;2023-04-25T17:48:00;95940;;;8.1;70
68891;BME280;55932;48.702;8.884;2023-04-25T17:52:49;95940;;;7.7;70.5
68891;BME280;55932;48.702;8.884;2023-04-25T17:55:19;95940;;;7.5;70.5
68891;BME280;55932;48.702;8.884;2023-04-25T17:57:49;95960;;;7.4;70.5
68891;BME280;55932;48.702;8.884;2023-04-25T18:02:38;95960;;;7.1;70.5
68891;BME280;55932;48.702;8.884;2023-04-25T18:08:01;95970;;;6.9;70.5
68891;BME280;55932;48.702;8.884;2023-04-25T18:10:32;95970;;;6.9;71
68891;BME280;55932;48.702;8.884;2023-04-25T18:13:02;95970;;;6.8;71
68891;BME280;55932;48.702;8.884;2023-04-25T18:15:32;95970;;;6.7;71
68891;BME280;55932;48.702;8.884;2023-04-25T18:18:12;95960;;;6.7;71
68891;BME280;55932;48.702;8.884;2023-04-25T18:25:23;95970;;;6.4;71
68891;BME280;55932;48.702;8.884;2023-04-25T18:27:54;95980;;;6.3;71
68891;BME280;55932;48.702;8.884;2023-04-25T18:30:24;95980;;;6.3;71
68891;BME280;55932;48.702;8.884;2023-04-25T18:32:54;95980;;;6.4;71
68891;BME280;55932;48.702;8.884;2023-04-25T18:35:25;95980;;;6.3;71
68891;BME280;55932;48.702;8.884;2023-04-25T18:38:05;95980;;;6.3;71
68891;BME280;55932;48.702;8.884;2023-04-25T18:40:26;95980;;;6.2;71
68891;BME280;55932;48.702;8.884;2023-04-25T18:47:56;96000;;;6.2;71
68891;BME280;55932;48.702;8.884;2023-04-25T18:50:26;96000;;;6.2;71
68891;BME280;55932;48.702;8.884;2023-04-25T18:52:56;96010;;;6.3;71
68891;BME280;55932;48.702;8.884;2023-04-25T18:55:26;96010;;;6.3;71
68891;BME280;55932;48.702;8.884;2023-04-25T18:58:08;96020;;;6.4;71
68891;BME280;55932;48.702;8.884;2023-04-25T19:00:39;96030;;;6.5;70.5
68891;BME280;55932;48.702;8.884;2023-04-25T19:03:09;96030;;;6.5;70.5
68891;BME280;55932;48.702;8.884;2023-04-25T19:08:08;96040;;;6.5;70.5
68891;BME280;55932;48.702;8.884;2023-04-25T19:10:30;96030;;;6.4;70.5
68891;BME280;55932;48.702;8.884;2023-04-25T19:18:12;96020;;;6.1;71
68891;BME280;55932;48.702;8.884;2023-04-25T19:23:14;96020;;;6;71.5
68891;BME280;55932;48.702;8.884;2023-04-25T19:25:44;96040;;;6;71
68891;BME280;55932;48.702;8.884;2023-04-25T19:28:14;96050;;;6.1;71
68891;BME280;55932;48.702;8.884;2023-04-25T19:38:25;96050;;;6.3;70.5
68891;BME280;55932;48.702;8.884;2023-04-25T19:43:17;96050;;;6.3;70.5
68891;BME280;55932;48.702;8.884;2023-04-25T19:45:48;96050;;;6.4;70.5
68891;BME280;55932;48.702;8.884;2023-04-25T19:48:18;96050;;;6.4;70.5
68891;BME280;55932;48.702;8.884;2023-04-25T19:50:37;96040;;;6.4;70.5
68891;BME280;55932;48.702;8.884;2023-04-25T19:53:09;96040;;;6.4;70.5
68891;BME280;55932;48.702;8.884;2023-04-25T19:55:39;96050;;;6.4;70.5